createdAt,value
2017-05-25T00:02:26.678Z,14.40
2017-05-25T00:04:55.379Z,14.40
2017-05-25T00:07:23.701Z,14.30
2017-05-25T00:09:52.015Z,14.30
2017-05-25T00:12:25.330Z,14.30
2017-05-25T00:14:53.842Z,14.20
2017-05-25T00:17:22.159Z,14.20
2017-05-25T00:19:50.473Z,14.20
2017-05-25T00:22:18.830Z,14.20
2017-05-25T00:24:47.139Z,14.10
2017-05-25T00:27:15.781Z,14.10
2017-05-25T00:29:44.748Z,14.10
2017-05-25T00:32:13.066Z,14.00
2017-05-25T00:34:41.771Z,14.00
2017-05-25T00:37:10.128Z,14.00
2017-05-25T00:39:38.473Z,13.90
2017-05-25T00:42:06.781Z,13.80
2017-05-25T00:44:35.286Z,13.80
2017-05-25T00:47:03.606Z,13.70
2017-05-25T00:49:32.455Z,13.70
2017-05-25T00:52:00.773Z,13.60
2017-05-25T00:54:29.083Z,13.60
2017-05-25T00:56:57.796Z,13.50
2017-05-25T00:59:25.348Z,13.60
2017-05-25T01:01:53.665Z,13.50
2017-05-25T01:04:22.322Z,13.50
2017-05-25T01:06:51.010Z,13.40
2017-05-25T01:09:18.558Z,13.40
2017-05-25T01:11:46.880Z,13.30
2017-05-25T01:14:15.294Z,13.20
2017-05-25T01:16:43.664Z,13.10
2017-05-25T01:19:11.963Z,13.10
2017-05-25T01:21:40.406Z,13.00
2017-05-25T01:24:09.049Z,13.00
2017-05-25T01:26:37.368Z,12.90
2017-05-25T01:29:05.677Z,12.90
2017-05-25T01:31:34.158Z,12.80
2017-05-25T01:34:02.474Z,12.80
2017-05-25T01:36:31.154Z,12.80
2017-05-25T01:38:58.701Z,12.70
2017-05-25T01:41:27.019Z,12.70
2017-05-25T01:43:55.574Z,12.70
2017-05-25T01:46:23.892Z,12.70
2017-05-25T01:48:52.362Z,12.70
2017-05-25T01:51:20.689Z,12.70
2017-05-25T01:53:49.047Z,12.70
2017-05-25T01:56:17.361Z,12.70
2017-05-25T01:58:46.059Z,12.70
2017-05-25T02:01:14.374Z,12.60
2017-05-25T02:03:42.682Z,12.60
2017-05-25T02:06:11.503Z,12.60
2017-05-25T02:08:39.818Z,12.50
2017-05-25T02:11:08.142Z,12.50
2017-05-25T02:13:36.498Z,12.40
2017-05-25T02:16:04.818Z,12.40
2017-05-25T02:18:33.471Z,12.40
2017-05-25T02:21:01.786Z,12.30
2017-05-25T02:23:30.141Z,12.30
2017-05-25T02:25:58.590Z,12.20
2017-05-25T02:28:27.006Z,12.20
2017-05-25T02:30:55.531Z,12.20
2017-05-25T02:33:23.858Z,12.20
2017-05-25T02:35:52.185Z,12.10
2017-05-25T02:38:20.571Z,12.10
2017-05-25T02:40:48.940Z,12.10
2017-05-25T02:43:17.310Z,12.10
2017-05-25T02:45:46.241Z,12.00
2017-05-25T02:48:14.603Z,12.00
2017-05-25T02:50:42.971Z,11.90
2017-05-25T02:53:11.382Z,11.90
2017-05-25T02:55:39.710Z,11.90
2017-05-25T02:58:08.445Z,11.80
2017-05-25T03:00:36.817Z,11.80
2017-05-25T03:03:05.186Z,11.70
2017-05-25T03:05:33.678Z,11.60
2017-05-25T03:08:02.004Z,11.60
2017-05-25T03:10:30.561Z,11.60
2017-05-25T03:12:58.929Z,11.60
2017-05-25T03:15:27.301Z,11.60
2017-05-25T03:17:55.714Z,11.60
2017-05-25T03:20:24.069Z,11.60
2017-05-25T03:22:52.469Z,11.60
2017-05-25T03:25:21.430Z,11.50
2017-05-25T03:27:50.391Z,11.50
2017-05-25T03:30:18.792Z,11.50
2017-05-25T03:32:47.185Z,11.50
2017-05-25T03:35:15.545Z,11.50
2017-05-25T03:37:44.354Z,11.60
2017-05-25T03:40:12.730Z,11.60
2017-05-25T03:42:41.107Z,11.70
2017-05-25T03:45:14.426Z,11.70
2017-05-25T03:47:42.775Z,11.80
2017-05-25T03:50:11.355Z,11.80
2017-05-25T03:52:39.733Z,11.80
2017-05-25T03:55:08.109Z,11.90
2017-05-25T03:57:36.878Z,11.90
2017-05-25T04:00:05.200Z,12.00
2017-05-25T04:02:33.565Z,12.00
2017-05-25T04:05:02.584Z,12.00
2017-05-25T04:07:30.922Z,12.10
2017-05-25T04:09:59.295Z,12.10
2017-05-25T04:12:27.709Z,12.10
2017-05-25T04:14:56.162Z,12.20
2017-05-25T04:17:24.543Z,12.20
2017-05-25T04:19:52.882Z,12.20
2017-05-25T04:22:21.845Z,12.30
2017-05-25T04:24:50.218Z,12.30
2017-05-25T04:27:18.596Z,12.30
2017-05-25T04:29:51.994Z,12.30
2017-05-25T04:32:20.365Z,12.40
2017-05-25T04:34:49.077Z,12.40
2017-05-25T04:37:17.453Z,12.50
2017-05-25T04:39:45.829Z,12.50
2017-05-25T04:42:14.298Z,12.50
2017-05-25T04:44:42.678Z,12.50
2017-05-25T04:47:11.037Z,12.50
2017-05-25T04:49:39.403Z,12.50
2017-05-25T04:52:07.775Z,12.50
2017-05-25T04:54:36.310Z,12.50
2017-05-25T04:57:04.670Z,12.50
2017-05-25T04:59:38.365Z,12.50
2017-05-25T05:02:06.743Z,12.60
2017-05-25T05:04:35.126Z,12.70
2017-05-25T05:07:03.541Z,12.70
2017-05-25T05:09:31.880Z,12.80
2017-05-25T05:12:00.637Z,12.90
2017-05-25T05:14:29.011Z,13.00
2017-05-25T05:16:57.348Z,13.10
2017-05-25T05:19:25.798Z,13.10
2017-05-25T05:21:54.165Z,13.20
2017-05-25T05:24:21.774Z,13.20
2017-05-25T05:26:50.557Z,13.30
2017-05-25T05:29:19.314Z,13.40
2017-05-25T05:31:47.701Z,13.40
2017-05-25T05:34:16.109Z,13.50
2017-05-25T05:36:44.478Z,13.60
2017-05-25T05:39:13.005Z,13.60
2017-05-25T05:41:41.342Z,13.70
2017-05-25T05:44:09.745Z,13.70
2017-05-25T05:46:38.079Z,13.70
2017-05-25T05:49:06.727Z,13.70
2017-05-25T05:51:35.098Z,13.80
2017-05-25T05:54:03.434Z,13.80
2017-05-25T05:56:32.026Z,13.90
2017-05-25T05:59:00.402Z,13.90
2017-05-25T06:01:33.717Z,14.00
2017-05-25T06:04:02.103Z,14.00
2017-05-25T06:06:30.477Z,14.00
2017-05-25T06:08:59.001Z,14.10
2017-05-25T06:11:27.370Z,14.10
2017-05-25T06:13:55.704Z,14.20
2017-05-25T06:16:24.425Z,14.20
2017-05-25T06:18:52.763Z,14.40
2017-05-25T06:21:21.133Z,14.40
2017-05-25T06:23:49.525Z,14.50
2017-05-25T06:26:17.894Z,14.70
2017-05-25T06:28:46.226Z,14.80
2017-05-25T06:31:14.839Z,14.80
2017-05-25T06:33:43.407Z,14.90
2017-05-25T06:36:11.781Z,14.90
2017-05-25T06:38:40.315Z,15.00
2017-05-25T06:41:09.135Z,15.00
2017-05-25T06:43:37.525Z,15.10
2017-05-25T06:46:05.905Z,15.20
2017-05-25T06:48:35.031Z,15.30
2017-05-25T06:51:03.422Z,15.40
2017-05-25T06:53:31.798Z,15.40
2017-05-25T06:56:05.341Z,15.40
2017-05-25T06:58:33.714Z,15.50
2017-05-25T07:01:02.098Z,15.60
2017-05-25T07:03:30.679Z,15.70
2017-05-25T07:05:59.426Z,15.70
2017-05-25T07:08:27.806Z,15.70
2017-05-25T07:10:56.191Z,15.80
2017-05-25T07:13:24.635Z,15.80
2017-05-25T07:15:53.027Z,16.00
2017-05-25T07:18:21.601Z,16.10
2017-05-25T07:20:49.229Z,16.10
2017-05-25T07:23:17.619Z,16.20
2017-05-25T07:25:46.122Z,16.40
2017-05-25T07:28:14.506Z,16.40
2017-05-25T07:30:43.393Z,16.50
2017-05-25T07:33:11.782Z,16.50
2017-05-25T07:35:40.162Z,16.60
2017-05-25T07:38:08.577Z,16.70
2017-05-25T07:40:36.969Z,16.80
2017-05-25T07:43:06.170Z,16.70
2017-05-25T07:45:34.516Z,16.70
2017-05-25T07:48:02.894Z,16.80
2017-05-25T07:50:31.324Z,17.00
2017-05-25T07:52:59.668Z,17.10
2017-05-25T07:55:28.076Z,17.30
2017-05-25T07:57:56.445Z,17.40
2017-05-25T08:00:24.826Z,17.50
2017-05-25T08:02:53.482Z,17.70
2017-05-25T08:05:21.865Z,17.90
2017-05-25T08:07:50.450Z,18.00
2017-05-25T08:10:18.842Z,18.20
2017-05-25T08:12:47.214Z,18.20
2017-05-25T08:15:15.656Z,18.20
2017-05-25T08:17:44.032Z,18.20
2017-05-25T08:20:13.098Z,18.20
2017-05-25T08:22:41.470Z,18.30
2017-05-25T08:25:09.805Z,18.40
2017-05-25T08:27:38.235Z,18.50
2017-05-25T08:30:06.614Z,18.70
2017-05-25T08:32:35.415Z,18.90
2017-05-25T08:35:03.793Z,19.00
2017-05-25T08:37:32.477Z,19.10
2017-05-25T08:40:01.770Z,19.10
2017-05-25T08:42:30.150Z,19.20
2017-05-25T08:44:58.532Z,19.30
2017-05-25T08:47:26.903Z,19.40
2017-05-25T08:49:55.272Z,19.60
2017-05-25T08:52:23.838Z,19.70
2017-05-25T08:54:52.214Z,19.80
2017-05-25T08:57:20.598Z,19.90
2017-05-25T08:59:49.660Z,19.90
2017-05-25T09:02:18.003Z,19.90
2017-05-25T09:04:46.374Z,20.00
2017-05-25T09:07:14.803Z,20.00
2017-05-25T09:09:43.134Z,20.00
2017-05-25T09:12:11.823Z,20.00
2017-05-25T09:14:40.198Z,20.20
2017-05-25T09:17:08.630Z,20.20
2017-05-25T09:19:37.037Z,20.30
2017-05-25T09:22:05.370Z,20.30
2017-05-25T09:24:34.145Z,20.40
2017-05-25T09:27:02.476Z,20.40
2017-05-25T09:29:30.846Z,20.40
2017-05-25T09:32:04.866Z,20.50
2017-05-25T09:34:33.207Z,20.60
2017-05-25T09:37:01.578Z,20.80
2017-05-25T09:39:29.952Z,20.90
2017-05-25T09:41:58.453Z,21.00
2017-05-25T09:44:26.831Z,21.00
2017-05-25T09:46:54.453Z,21.00
2017-05-25T09:49:23.288Z,21.30
2017-05-25T09:51:51.674Z,21.40
2017-05-25T09:54:20.012Z,21.50
2017-05-25T09:56:48.910Z,21.50
2017-05-25T09:59:17.287Z,21.60
2017-05-25T10:01:45.659Z,21.70
2017-05-25T10:04:14.091Z,21.80
2017-05-25T10:06:42.424Z,21.90
2017-05-25T10:09:11.222Z,21.90
2017-05-25T10:11:39.632Z,22.00
2017-05-25T10:14:08.037Z,22.10
2017-05-25T10:16:36.483Z,22.10
2017-05-25T10:19:04.960Z,22.10
2017-05-25T10:21:33.330Z,22.10
2017-05-25T10:24:01.802Z,22.10
2017-05-25T10:26:30.171Z,22.20
2017-05-25T10:28:58.499Z,22.30
2017-05-25T10:31:32.167Z,22.40
2017-05-25T10:34:00.537Z,22.30
2017-05-25T10:36:29.062Z,22.40
2017-05-25T10:38:57.441Z,22.40
2017-05-25T10:41:25.811Z,22.40
2017-05-25T10:43:54.567Z,22.50
2017-05-25T10:46:22.938Z,22.60
2017-05-25T10:48:51.350Z,22.50
2017-05-25T10:51:19.717Z,22.60
2017-05-25T10:53:48.381Z,22.60
2017-05-25T10:56:16.791Z,22.70
2017-05-25T10:58:45.205Z,22.70
2017-05-25T11:01:13.575Z,22.80
2017-05-25T11:03:42.128Z,22.90
2017-05-25T11:06:10.902Z,23.00
2017-05-25T11:08:39.272Z,23.00
2017-05-25T11:11:07.646Z,23.10
2017-05-25T11:13:36.064Z,23.00
2017-05-25T11:16:04.470Z,23.00
2017-05-25T11:18:32.910Z,22.90
2017-05-25T11:21:01.273Z,22.90
2017-05-25T11:23:29.804Z,22.90
2017-05-25T11:25:58.173Z,22.80
2017-05-25T11:28:26.601Z,22.80
2017-05-25T11:30:55.155Z,22.90
2017-05-25T11:33:23.513Z,23.10
2017-05-25T11:35:52.009Z,23.20
2017-05-25T11:38:20.401Z,23.20
2017-05-25T11:40:49.305Z,23.20
2017-05-25T11:43:17.669Z,23.10
2017-05-25T11:45:46.003Z,23.10
2017-05-25T11:48:14.471Z,23.20
2017-05-25T11:50:43.313Z,23.30
2017-05-25T11:53:11.677Z,23.50
2017-05-25T11:55:39.998Z,23.60
2017-05-25T11:58:09.533Z,23.70
2017-05-25T12:00:37.858Z,23.70
2017-05-25T12:03:06.228Z,23.60
2017-05-25T12:05:34.631Z,23.70
2017-05-25T12:08:03.021Z,23.80
2017-05-25T12:10:31.712Z,23.80
2017-05-25T12:13:00.042Z,23.80
2017-05-25T12:15:28.366Z,23.80
2017-05-25T12:17:57.393Z,24.00
2017-05-25T12:20:25.774Z,24.20
2017-05-25T12:22:54.114Z,24.30
2017-05-25T12:25:22.629Z,24.40
2017-05-25T12:27:51.004Z,24.40
2017-05-25T12:30:19.375Z,24.50
2017-05-25T12:32:48.039Z,24.50
2017-05-25T12:35:16.613Z,24.50
2017-05-25T12:37:45.002Z,24.40
2017-05-25T12:40:13.827Z,24.30
2017-05-25T12:42:42.194Z,24.40
2017-05-25T12:45:10.570Z,24.60
2017-05-25T12:47:39.233Z,24.70
2017-05-25T12:50:07.594Z,24.80
2017-05-25T12:52:35.977Z,24.90
2017-05-25T12:55:04.726Z,24.80
2017-05-25T12:57:33.103Z,24.80
2017-05-25T13:00:02.308Z,24.90
2017-05-25T13:02:30.779Z,24.90
2017-05-25T13:04:59.158Z,25.00
2017-05-25T13:07:28.053Z,25.10
2017-05-25T13:09:56.429Z,25.10
2017-05-25T13:12:24.759Z,25.10
2017-05-25T13:14:53.462Z,25.10
2017-05-25T13:17:21.859Z,25.10
2017-05-25T13:19:50.328Z,25.20
2017-05-25T13:22:18.770Z,25.20
2017-05-25T13:24:47.535Z,25.30
2017-05-25T13:27:15.911Z,25.30
2017-05-25T13:29:44.289Z,25.30
2017-05-25T13:32:12.959Z,25.30
2017-05-25T13:34:41.334Z,25.10
2017-05-25T13:37:10.886Z,25.10
2017-05-25T13:39:39.778Z,25.10
2017-05-25T13:42:08.171Z,25.30
2017-05-25T13:44:36.662Z,25.30
2017-05-25T13:47:05.023Z,25.20
2017-05-25T13:49:33.433Z,25.20
2017-05-25T13:52:02.158Z,25.20
2017-05-25T13:54:30.537Z,25.40
2017-05-25T13:56:58.922Z,25.40
2017-05-25T13:59:27.493Z,25.50
2017-05-25T14:01:59.986Z,25.50
2017-05-25T14:04:28.358Z,25.40
2017-05-25T14:06:56.732Z,25.40
2017-05-25T14:09:25.172Z,25.40
2017-05-25T14:11:53.544Z,25.50
2017-05-25T14:14:21.875Z,25.50
2017-05-25T14:16:50.507Z,25.60
2017-05-25T14:19:18.882Z,25.70
2017-05-25T14:21:46.483Z,25.70
2017-05-25T14:24:15.237Z,25.70
2017-05-25T14:26:43.605Z,25.60
2017-05-25T14:29:11.984Z,25.70
2017-05-25T14:31:40.518Z,25.90
2017-05-25T14:34:09.175Z,25.80
2017-05-25T14:36:37.570Z,25.80
2017-05-25T14:39:06.014Z,25.80
2017-05-25T14:41:34.326Z,25.90
2017-05-25T14:44:02.789Z,25.90
2017-05-25T14:46:31.111Z,25.80
2017-05-25T14:48:59.437Z,25.80
2017-05-25T14:51:27.994Z,25.80
2017-05-25T14:53:56.365Z,25.80
2017-05-25T14:56:24.746Z,25.90
2017-05-25T14:58:54.847Z,26.00
2017-05-25T15:01:23.219Z,26.10
2017-05-25T15:03:51.592Z,26.20
2017-05-25T15:06:20.123Z,26.10
2017-05-25T15:08:48.493Z,26.20
2017-05-25T15:11:17.269Z,26.30
2017-05-25T15:13:45.639Z,26.40
2017-05-25T15:16:13.962Z,26.60
2017-05-25T15:18:42.942Z,26.70
2017-05-25T15:21:11.319Z,26.70
2017-05-25T15:23:39.694Z,26.70
2017-05-25T15:26:08.062Z,26.80
2017-05-25T15:28:36.731Z,26.80
2017-05-25T15:31:05.102Z,26.80
2017-05-25T15:33:33.478Z,26.70
2017-05-25T15:36:02.293Z,26.70
2017-05-25T15:38:30.663Z,26.80
2017-05-25T15:40:59.042Z,26.90
2017-05-25T15:43:27.795Z,27.00
2017-05-25T15:45:56.162Z,27.00
2017-05-25T15:48:23.766Z,27.00
2017-05-25T15:50:52.574Z,27.00
2017-05-25T15:53:20.998Z,26.90
2017-05-25T15:55:49.367Z,26.80
2017-05-25T15:58:17.775Z,26.70
2017-05-25T16:00:46.087Z,26.70
2017-05-25T16:03:14.450Z,26.60
2017-05-25T16:05:43.254Z,26.50
2017-05-25T16:08:12.049Z,26.20
2017-05-25T16:10:40.444Z,25.90
2017-05-25T16:13:08.811Z,25.70
2017-05-25T16:15:37.247Z,25.50
2017-05-25T16:18:05.619Z,25.50
2017-05-25T16:20:33.962Z,25.60
2017-05-25T16:23:02.480Z,25.70
2017-05-25T16:25:30.845Z,25.80
2017-05-25T16:27:59.254Z,25.80
2017-05-25T16:30:27.617Z,25.90
2017-05-25T16:32:56.454Z,25.90
2017-05-25T16:35:24.825Z,26.10
2017-05-25T16:37:53.199Z,26.20
2017-05-25T16:40:22.085Z,26.30
2017-05-25T16:42:50.456Z,26.30
2017-05-25T16:45:18.825Z,26.30
2017-05-25T16:47:47.259Z,26.10
2017-05-25T16:50:15.633Z,26.10
2017-05-25T16:52:44.149Z,26.10
2017-05-25T16:55:12.525Z,26.20
2017-05-25T16:57:41.637Z,26.00
2017-05-25T17:00:10.001Z,25.70
2017-05-25T17:02:38.374Z,25.40
2017-05-25T17:05:07.106Z,25.00
2017-05-25T17:07:35.474Z,24.70
2017-05-25T17:10:03.858Z,24.40
2017-05-25T17:12:32.628Z,24.10
2017-05-25T17:15:01.013Z,23.90
2017-05-25T17:17:29.342Z,23.70
2017-05-25T17:19:57.843Z,23.60
2017-05-25T17:22:26.256Z,23.40
2017-05-25T17:24:54.631Z,23.20
2017-05-25T17:27:23.006Z,23.10
2017-05-25T17:29:51.322Z,22.90
2017-05-25T17:32:19.742Z,22.80
2017-05-25T17:34:49.868Z,22.80
2017-05-25T17:37:18.357Z,22.70
2017-05-25T17:39:46.678Z,22.60
2017-05-25T17:42:15.004Z,22.40
2017-05-25T17:44:43.766Z,22.30
2017-05-25T17:47:12.095Z,22.20
2017-05-25T17:49:40.453Z,22.20
2017-05-25T17:52:09.258Z,22.10
2017-05-25T17:54:38.074Z,22.00
2017-05-25T17:57:06.453Z,21.90
2017-05-25T17:59:34.926Z,21.80
2017-05-25T18:02:03.642Z,21.70
2017-05-25T18:04:32.005Z,21.70
2017-05-25T18:07:00.380Z,21.70
2017-05-25T18:09:28.846Z,21.60
2017-05-25T18:11:57.246Z,21.50
2017-05-25T18:14:25.571Z,21.40
2017-05-25T18:16:54.135Z,21.40
2017-05-25T18:19:22.542Z,21.30
2017-05-25T18:21:50.918Z,21.30
2017-05-25T18:24:19.350Z,21.20
2017-05-25T18:26:47.740Z,21.10
2017-05-25T18:29:16.118Z,21.10
2017-05-25T18:31:44.730Z,21.00
2017-05-25T18:34:13.366Z,21.00
2017-05-25T18:36:41.781Z,20.90
2017-05-25T18:39:10.163Z,20.80
2017-05-25T18:41:38.582Z,20.80
2017-05-25T18:44:06.955Z,20.80
2017-05-25T18:46:35.545Z,20.70
2017-05-25T18:49:03.874Z,20.70
2017-05-25T18:51:32.253Z,20.60
2017-05-25T18:54:00.944Z,20.60
2017-05-25T18:56:29.322Z,20.50
2017-05-25T18:58:57.742Z,20.50
2017-05-25T19:01:26.112Z,20.40
2017-05-25T19:03:57.185Z,20.40
2017-05-25T19:06:25.561Z,20.40
2017-05-25T19:08:53.134Z,20.30
2017-05-25T19:11:21.862Z,20.20
2017-05-25T19:13:50.239Z,20.20
2017-05-25T19:16:18.670Z,20.10
2017-05-25T19:18:46.287Z,20.10
2017-05-25T19:21:14.711Z,20.10
2017-05-25T19:23:43.095Z,20.00
2017-05-25T19:26:11.438Z,20.00
2017-05-25T19:28:39.994Z,19.90
2017-05-25T19:31:08.368Z,19.90
2017-05-25T19:33:36.790Z,19.80
2017-05-25T19:36:05.331Z,19.80
2017-05-25T19:38:34.089Z,19.70
2017-05-25T19:41:02.471Z,19.60
2017-05-25T19:43:30.850Z,19.50
2017-05-25T19:45:59.354Z,19.40
2017-05-25T19:48:27.726Z,19.40
2017-05-25T19:50:56.099Z,19.30
2017-05-25T19:53:24.885Z,19.20
2017-05-25T19:55:53.216Z,19.10
2017-05-25T19:58:21.588Z,19.10
2017-05-25T20:00:52.819Z,19.10
2017-05-25T20:03:21.190Z,19.10
2017-05-25T20:05:49.566Z,19.00
2017-05-25T20:08:18.218Z,18.90
2017-05-25T20:10:46.592Z,18.80
2017-05-25T20:13:14.919Z,18.80
2017-05-25T20:15:43.343Z,18.70
2017-05-25T20:18:10.939Z,18.70
2017-05-25T20:20:39.351Z,18.50
2017-05-25T20:23:07.720Z,18.40
2017-05-25T20:25:36.153Z,18.30
2017-05-25T20:28:04.480Z,18.20
2017-05-25T20:30:32.851Z,18.10
2017-05-25T20:33:03.857Z,18.10
2017-05-25T20:35:36.237Z,18.00
2017-05-25T20:38:05.114Z,17.90
2017-05-25T20:40:33.481Z,17.90
2017-05-25T20:43:01.814Z,17.80
2017-05-25T20:45:30.537Z,17.70
2017-05-25T20:47:58.902Z,17.70
2017-05-25T20:50:27.274Z,17.60
2017-05-25T20:52:55.865Z,17.50
2017-05-25T20:55:24.238Z,17.40
2017-05-25T20:57:52.562Z,17.40
2017-05-25T21:00:21.249Z,17.40
2017-05-25T21:02:49.628Z,17.30
2017-05-25T21:05:18.001Z,17.30
2017-05-25T21:07:48.047Z,17.20
2017-05-25T21:10:16.410Z,17.20
2017-05-25T21:12:44.798Z,17.20
2017-05-25T21:15:13.622Z,17.10
2017-05-25T21:17:41.988Z,17.10
2017-05-25T21:20:10.310Z,17.00
2017-05-25T21:22:38.770Z,16.90
2017-05-25T21:25:07.150Z,16.90
2017-05-25T21:27:35.525Z,16.80
2017-05-25T21:30:03.973Z,16.80
2017-05-25T21:32:32.347Z,16.70
2017-05-25T21:35:00.799Z,16.70
2017-05-25T21:37:30.026Z,16.60
2017-05-25T21:39:58.398Z,16.60
2017-05-25T21:42:26.723Z,16.50
2017-05-25T21:44:55.131Z,16.50
2017-05-25T21:47:23.892Z,16.40
2017-05-25T21:49:52.227Z,16.40
2017-05-25T21:52:20.590Z,16.30
2017-05-25T21:54:49.058Z,16.30
2017-05-25T21:57:17.418Z,16.30
2017-05-25T21:59:45.830Z,16.20
2017-05-25T22:02:14.246Z,16.20
2017-05-25T22:04:42.573Z,16.10
2017-05-25T22:07:12.445Z,16.10
2017-05-25T22:09:40.817Z,16.00
2017-05-25T22:12:09.138Z,16.00
2017-05-25T22:14:38.367Z,15.90
2017-05-25T22:17:06.738Z,15.90
2017-05-25T22:19:34.297Z,15.90
2017-05-25T22:22:03.008Z,15.80
2017-05-25T22:24:31.378Z,15.80
2017-05-25T22:26:59.706Z,15.80
2017-05-25T22:29:28.221Z,15.80
2017-05-25T22:31:56.641Z,15.70
2017-05-25T22:34:25.401Z,15.60
2017-05-25T22:36:53.775Z,15.60
2017-05-25T22:39:22.520Z,15.50
2017-05-25T22:41:50.886Z,15.40
2017-05-25T22:44:19.254Z,15.40
2017-05-25T22:46:48.169Z,15.30
2017-05-25T22:49:16.538Z,15.30
2017-05-25T22:51:44.901Z,15.20
2017-05-25T22:54:13.419Z,15.10
2017-05-25T22:56:41.791Z,15.00
2017-05-25T22:59:10.120Z,15.00
2017-05-25T23:01:39.065Z,14.90
2017-05-25T23:04:07.425Z,14.90
2017-05-25T23:06:35.789Z,14.90
2017-05-25T23:09:04.154Z,14.90
2017-05-25T23:11:32.522Z,14.90
2017-05-25T23:14:00.958Z,14.90
2017-05-25T23:16:29.332Z,14.80
2017-05-25T23:18:57.701Z,14.80
2017-05-25T23:21:27.023Z,14.80
2017-05-25T23:23:55.389Z,14.70
2017-05-25T23:26:23.755Z,14.70
2017-05-25T23:28:52.165Z,14.70
2017-05-25T23:31:22.186Z,14.60
2017-05-25T23:33:50.562Z,14.60
2017-05-25T23:36:19.171Z,14.50
2017-05-25T23:38:47.660Z,14.50
2017-05-25T23:41:16.516Z,14.50
2017-05-25T23:43:44.843Z,14.50
2017-05-25T23:46:13.214Z,14.50
2017-05-25T23:48:41.686Z,14.50
2017-05-25T23:51:10.060Z,14.50
2017-05-25T23:53:38.435Z,14.50
2017-05-25T23:56:06.909Z,14.40
2017-05-25T23:58:35.290Z,14.40
